Time;durP1;ratioP1;P1;durP2;ratioP2;P2;SDS_P1;SDS_P2;PMS_P1;PMS_P2;Temp;Humidity;BMP_temperature;BMP_pressure;BME280_temperature;BME280_humidity;BME280_pressure;Samples;Min_cycle;Max_cycle;Signal;HPM_P1;HPM_P2
2021/12/17 00:05:02;;;;;;;4.43;2.15;;;3.20;85.00;;;3.04;98.53;99163.78;4967640;28;119416;-84
2021/12/17 00:07:36;;;;;;;8.07;2.20;;;3.10;87.10;;;2.92;99.09;99159.78;4950975;28;130466;-84
2021/12/17 00:10:12;;;;;;;4.60;1.80;;;3.10;86.10;;;2.93;99.52;99167.56;4965544;28;129791;-83
2021/12/17 00:12:41;;;;;;;5.07;2.13;;;3.10;86.70;;;2.99;99.39;99173.72;4950848;28;121390;-84
2021/12/17 00:15:12;;;;;;;5.70;2.30;;;3.10;87.80;;;2.90;99.67;99167.28;4983780;28;121357;-83
2021/12/17 00:17:51;;;;;;;5.57;2.03;;;3.10;87.90;;;3.02;99.13;99175.84;4974053;28;129091;-83
2021/12/17 00:20:51;;;;;;;5.22;2.00;;;3.10;87.80;;;3.05;98.93;99169.94;5003344;28;128714;-82
2021/12/17 00:49:20;;;;;;;4.97;2.05;;;2.90;90.30;;;2.80;100.00;99179.59;4986472;28;120218;-84
2021/12/17 00:51:59;;;;;;;7.80;2.25;;;2.90;91.60;;;2.77;100.00;99188.19;4970138;28;128889;-83
2021/12/17 00:54:37;;;;;;;8.20;2.38;;;2.90;92.40;;;2.63;100.00;99195.13;4983442;28;129514;-83
2021/12/17 00:57:13;;;;;;;6.63;1.95;;;2.90;91.60;;;2.57;100.00;99204.25;4972670;28;118718;-83
2021/12/17 00:59:47;;;;;;;5.25;2.00;;;2.90;91.30;;;2.46;100.00;99204.25;4992759;28;119829;-81
2021/12/17 01:02:20;;;;;;;9.38;2.20;;;2.80;92.10;;;2.25;100.00;99181.16;5002504;28;127989;-81
2021/12/17 01:04:52;;;;;;;4.13;1.70;;;2.70;93.20;;;2.20;100.00;99191.84;5000882;28;129024;-81
2021/12/17 01:07:24;;;;;;;3.65;2.03;;;2.70;94.80;;;2.39;100.00;99179.56;4968851;28;121244;-81
2021/12/17 01:09:56;;;;;;;5.25;2.03;;;2.60;94.90;;;2.25;100.00;99184.63;4986598;28;120922;-81
2021/12/17 01:12:27;;;;;;;4.80;2.05;;;2.60;95.00;;;2.08;100.00;99195.56;4986538;28;129534;-81
2021/12/17 01:15:25;;;;;;;4.32;1.80;;;2.60;96.30;;;2.01;100.00;99184.31;4981342;28;129952;-81
2021/12/17 01:18:17;;;;;;;5.60;1.65;;;2.60;97.90;;;2.14;100.00;99183.78;4985407;28;119555;-82
2021/12/17 01:21:21;;;;;;;7.22;2.17;;;2.60;98.60;;;2.03;100.00;99186.72;5001023;28;119483;-82
2021/12/17 01:24:09;;;;;;;5.30;2.05;;;2.50;99.40;;;1.93;100.00;99182.94;4969028;28;129746;-82
2021/12/17 01:35:55;;;;;;;5.40;2.10;;;2.60;97.20;;;2.06;100.00;99176.28;4987320;28;129371;-81
2021/12/17 01:44:25;;;;;;;3.33;1.60;;;2.60;97.30;;;2.30;100.00;99178.47;4986666;28;118096;-82
2021/12/17 01:46:58;;;;;;;6.30;1.73;;;2.50;98.30;;;2.23;100.00;99180.59;4988544;28;129774;-82
2021/12/17 02:00:53;;;;;;;4.32;1.63;;;2.50;99.90;;;2.21;100.00;99188.09;5000602;28;129416;-81
2021/12/17 02:03:23;;;;;;;6.22;2.03;;;2.50;99.90;;;1.84;100.00;99194.38;4968718;28;121207;-82
2021/12/17 02:05:53;;;;;;;4.60;1.50;;;2.40;99.80;;;1.86;100.00;99197.63;4972807;28;121306;-81
2021/12/17 02:08:22;;;;;;;7.13;2.30;;;2.50;99.90;;;1.98;100.00;99180.28;4995463;28;129532;-80
2021/12/17 02:11:35;;;;;;;4.38;2.00;;;2.50;99.90;;;2.07;100.00;99198.50;4978738;28;127997;-83
2021/12/17 02:19:58;;;;;;;4.80;1.67;;;2.50;99.90;;;2.09;100.00;99205.19;4986764;28;129102;-82
2021/12/17 02:31:22;;;;;;;6.38;2.30;;;2.50;98.90;;;2.38;100.00;99196.69;4997266;28;129213;-81
2021/12/17 02:33:51;;;;;;;6.45;1.63;;;2.60;98.10;;;2.29;100.00;99198.28;5012760;28;130087;-80
2021/12/17 02:36:27;;;;;;;4.32;1.45;;;2.60;96.70;;;2.39;100.00;99190.28;4996664;28;119761;-81
2021/12/17 02:39:14;;;;;;;5.47;1.80;;;2.60;94.00;;;2.20;100.00;99191.84;4994181;28;118556;-81
2021/12/17 02:47:20;;;;;;;4.17;1.90;;;2.70;87.30;;;2.27;100.00;99184.38;4987780;28;119104;-80
2021/12/17 02:49:50;;;;;;;5.47;1.58;;;2.60;86.80;;;2.32;100.00;99184.38;4999078;28;119243;-81
2021/12/17 02:52:19;;;;;;;4.22;1.60;;;2.70;84.50;;;2.38;100.00;99182.53;5001257;28;128783;-80
2021/12/17 02:54:50;;;;;;;6.20;1.48;;;2.70;81.60;;;2.25;100.00;99179.28;4969043;28;128538;-81
2021/12/17 02:57:19;;;;;;;5.82;1.77;;;2.70;78.60;;;2.26;100.00;99174.72;4986851;28;121446;-82
2021/12/17 02:59:48;;;;;;;5.53;1.90;;;2.70;76.80;;;2.34;99.83;99172.34;4986035;28;122170;-82
2021/12/17 03:02:18;;;;;;;4.63;1.75;;;2.80;76.00;;;2.43;99.40;99186.03;5005240;28;128626;-81
2021/12/17 03:04:47;;;;;;;5.43;1.88;;;2.80;75.40;;;2.28;100.00;99173.38;5005243;28;129354;-83
2021/12/17 03:07:22;;;;;;;4.05;1.73;;;2.70;76.50;;;2.26;99.57;99175.53;4989585;28;119089;-82
2021/12/17 03:10:03;;;;;;;8.00;2.28;;;2.70;73.70;;;2.17;100.00;99179.78;4973126;28;119290;-80
2021/12/17 03:12:42;;;;;;;4.43;1.75;;;2.70;73.30;;;2.34;99.63;99184.94;4971294;28;128886;-80
2021/12/17 03:15:20;;;;;;;4.00;1.80;;;2.70;71.90;;;2.40;98.97;99183.88;5005191;28;129030;-82
2021/12/17 03:23:39;;;;;;;4.25;1.33;;;2.80;70.90;;;2.39;98.74;99187.59;4986737;28;129287;-82
2021/12/17 03:26:13;;;;;;;6.22;1.50;;;2.70;72.30;;;2.53;98.00;99193.25;4987374;28;129014;-82
2021/12/17 03:28:46;;;;;;;4.90;1.40;;;2.80;71.50;;;2.57;97.60;99207.75;4985138;28;120034;-81
2021/12/17 03:31:17;;;;;;;5.93;1.63;;;2.80;72.60;;;2.36;98.07;99204.22;5004838;28;118773;-81
2021/12/17 03:33:49;;;;;;;5.88;1.40;;;2.70;72.30;;;2.16;99.01;99203.06;4988053;28;129102;-81
2021/12/17 03:36:21;;;;;;;5.20;1.95;;;2.70;70.80;;;2.09;99.25;99197.16;4971111;28;128977;-81
2021/12/17 03:38:51;;;;;;;4.65;1.63;;;2.70;66.70;;;2.13;100.00;99200.13;4972135;28;118350;-82
2021/12/17 03:41:25;;;;;;;6.57;1.38;;;2.70;70.80;;;2.30;99.06;99191.88;5006388;28;119291;-82
2021/12/17 03:44:04;;;;;;;5.57;1.90;;;2.70;70.10;;;2.10;99.02;99209.50;4990069;28;129360;-82
2021/12/17 03:46:56;;;;;;;4.18;1.48;;;2.60;70.60;;;1.92;100.00;99201.94;4988569;28;128940;-81
2021/12/17 03:49:24;;;;;;;4.97;1.67;;;2.60;74.30;;;1.94;100.00;99192.56;4988970;28;121692;-81
2021/12/17 03:52:04;;;;;;;6.85;1.55;;;2.50;76.70;;;1.95;100.00;99196.84;4988564;28;121038;-80
2021/12/17 03:54:36;;;;;;;3.95;1.58;;;2.50;78.60;;;1.93;100.00;99200.84;4978196;28;129262;-83
2021/12/17 03:57:12;;;;;;;3.92;1.30;;;2.50;80.90;;;1.91;100.00;99201.09;4990620;28;129595;-80
2021/12/17 03:59:46;;;;;;;3.92;1.50;;;2.40;83.70;;;1.95;100.00;99190.72;4972718;28;117542;-83
2021/12/17 04:02:17;;;;;;;4.18;1.50;;;2.40;84.20;;;2.00;100.00;99188.03;5001587;28;119553;-83
2021/12/17 04:04:46;;;;;;;4.43;1.60;;;2.40;84.10;;;2.15;100.00;99180.06;4987922;28;128983;-83
2021/12/17 04:07:42;;;;;;;6.38;2.53;;;2.40;83.00;;;2.07;100.00;99190.47;4983973;28;129176;-82
2021/12/17 04:10:12;;;;;;;5.38;1.63;;;2.40;83.50;;;2.17;100.00;99190.50;4988457;28;119350;-83
2021/12/17 04:12:54;;;;;;;5.40;1.98;;;2.40;85.40;;;1.99;100.00;99197.13;4975540;28;118471;-83
2021/12/17 04:15:34;;;;;;;3.80;1.50;;;2.40;85.10;;;2.02;100.00;99191.25;4970865;28;129141;-84
2021/12/17 04:18:07;;;;;;;4.55;1.38;;;2.40;84.40;;;2.11;100.00;99195.03;4982850;28;130378;-83
2021/12/17 04:20:37;;;;;;;3.25;1.73;;;2.40;83.30;;;2.24;99.76;99195.59;4965788;28;119744;-83
2021/12/17 04:23:07;;;;;;;5.22;1.60;;;2.50;83.50;;;2.26;99.10;99191.59;4967306;28;118320;-81
2021/12/17 04:25:37;;;;;;;7.13;2.05;;;2.40;81.00;;;2.27;99.60;99195.06;4950490;28;129276;-83
2021/12/17 04:28:08;;;;;;;5.57;1.77;;;2.50;81.00;;;2.39;98.64;99190.28;4983348;28;130060;-81
2021/12/17 04:30:38;;;;;;;3.90;1.35;;;2.50;80.70;;;2.51;97.85;99187.38;4900759;28;118128;-81
2021/12/17 04:33:07;;;;;;;7.18;1.73;;;2.50;79.70;;;2.19;98.21;99191.03;4964901;28;119572;-78
2021/12/17 04:35:37;;;;;;;3.22;1.70;;;2.50;76.90;;;2.15;99.47;99185.41;4950286;28;129366;-80
2021/12/17 04:38:08;;;;;;;6.40;1.90;;;2.50;75.70;;;2.31;97.54;99193.50;4964516;28;129825;-82
2021/12/17 04:40:41;;;;;;;6.18;1.77;;;2.50;72.70;;;2.47;97.07;99195.13;4969243;28;121453;-81
2021/12/17 04:43:18;;;;;;;5.75;1.38;;;2.60;72.50;;;2.23;97.13;99199.34;4987105;28;122599;-81
2021/12/17 04:45:58;;;;;;;3.30;1.45;;;2.60;67.30;;;2.24;97.59;99192.94;5000243;28;128037;-83
2021/12/17 04:59:44;;;;;;;;;;;2.60;68.50;;;2.38;96.86;99188.66;4983756;28;129307;-79
2021/12/17 05:02:15;;;;;;;3.33;1.48;;;2.60;68.80;;;2.29;97.49;99180.38;4996364;28;119927;-81
2021/12/17 05:04:54;;;;;;;4.25;1.33;;;2.50;69.20;;;2.16;97.80;99175.50;4966675;28;119009;-79
2021/12/17 05:07:25;;;;;;;4.80;2.20;;;2.50;71.80;;;2.00;99.08;99182.69;4961882;28;129626;-79
2021/12/17 05:10:03;;;;;;;3.92;1.45;;;2.40;75.20;;;2.06;99.89;99184.31;4966034;28;129346;-78
2021/12/17 05:18:23;;;;;;;4.38;1.60;;;2.40;78.40;;;2.02;98.76;99187.78;4981159;28;129874;-77
2021/12/17 05:21:01;;;;;;;3.88;1.50;;;2.40;77.60;;;2.26;98.82;99185.44;4981749;28;129967;-77
2021/12/17 05:23:37;;;;;;;5.47;2.20;;;2.40;78.70;;;2.30;98.14;99181.94;4979531;28;119558;-77
2021/12/17 05:26:09;;;;;;;5.80;2.60;;;2.40;78.50;;;2.36;98.09;99185.47;4965751;28;119077;-77
2021/12/17 05:28:43;;;;;;;8.20;3.03;;;2.40;77.80;;;2.14;98.91;99181.13;4962187;28;130043;-77
2021/12/17 05:31:21;;;;;;;8.70;3.50;;;2.40;77.80;;;2.27;98.94;99184.38;4964751;28;129476;-77
2021/12/17 05:33:53;;;;;;;4.78;2.00;;;2.50;77.20;;;2.26;98.39;99175.53;4977955;28;121862;-78
2021/12/17 05:36:25;;;;;;;6.32;2.28;;;2.50;76.10;;;2.36;97.82;99173.94;4965316;28;121688;-78
2021/12/17 05:39:13;;;;;;;;;;;2.50;76.20;;;2.32;98.43;99174.47;4962591;28;129566;-78
2021/12/17 05:41:43;;;;;;;5.72;2.35;;;2.50;76.60;;;2.37;98.11;99181.72;4965896;28;130342;-79
2021/12/17 05:44:34;;;;;;;4.55;2.33;;;2.50;76.50;;;2.44;97.61;99179.56;4965700;28;120100;-80
2021/12/17 05:47:07;;;;;;;10.45;3.67;;;2.60;75.30;;;2.46;97.48;99177.47;4966127;28;118312;-77
2021/12/17 05:49:36;;;;;;;8.02;3.28;;;2.50;75.00;;;2.49;97.52;99194.84;4949153;28;129311;-77
2021/12/17 05:52:13;;;;;;;9.90;3.28;;;2.50;75.40;;;2.15;98.56;99185.41;4962896;28;129815;-76
2021/12/17 05:54:41;;;;;;;10.57;2.97;;;2.50;74.20;;;2.27;98.42;99184.38;4982144;28;120102;-75
2021/12/17 05:57:10;;;;;;;8.15;2.10;;;2.60;74.40;;;2.39;97.46;99194.84;4963784;28;119470;-77
2021/12/17 05:59:40;;;;;;;8.60;3.22;;;2.60;75.00;;;2.26;98.98;99191.59;4961193;28;129957;-76
2021/12/17 06:02:14;;;;;;;8.27;3.20;;;2.50;77.40;;;2.31;99.02;99204.19;4965764;28;129455;-75
2021/12/17 06:04:46;;;;;;;8.27;3.33;;;2.40;80.50;;;2.33;99.08;99202.06;4962446;28;120235;-76
2021/12/17 06:07:26;;;;;;;12.50;4.15;;;2.40;82.70;;;1.96;100.00;99194.97;4966088;28;118924;-78
2021/12/17 06:10:00;;;;;;;12.93;6.63;;;2.40;83.20;;;2.04;100.00;99191.81;4962448;28;129796;-79
2021/12/17 06:12:32;;;;;;;8.13;4.10;;;2.40;84.80;;;2.03;100.00;99197.44;4949006;28;129350;-77
2021/12/17 06:15:03;;;;;;;8.77;3.20;;;2.40;82.80;;;1.90;100.00;99204.03;4962239;28;119632;-79
2021/12/17 06:17:34;;;;;;;7.55;2.97;;;2.40;81.50;;;1.92;100.00;99202.72;4963603;28;119613;-81
2021/12/17 06:20:02;;;;;;;7.70;2.28;;;2.40;82.40;;;1.92;100.00;99207.28;4962482;28;128998;-83
2021/12/17 06:22:32;;;;;;;8.85;2.72;;;2.40;80.50;;;1.87;100.00;99193.88;4978721;28;129966;-83
2021/12/17 06:25:06;;;;;;;3.88;2.08;;;2.40;79.10;;;1.88;100.00;99195.47;4942209;28;122325;-77
2021/12/17 06:27:35;;;;;;;6.95;2.53;;;2.40;80.60;;;1.78;100.00;99201.59;4945865;28;121456;-79
2021/12/17 06:30:08;;;;;;;7.00;2.72;;;2.40;82.10;;;1.74;100.00;99203.97;4944318;28;129909;-79
2021/12/17 06:32:38;;;;;;;5.95;2.42;;;2.30;82.70;;;1.72;100.00;99208.00;4949073;28;129482;-79
2021/12/17 06:35:09;;;;;;;4.90;2.35;;;2.30;80.40;;;1.69;100.00;99198.59;4962946;28;119279;-79
2021/12/17 06:37:40;;;;;;;4.65;2.30;;;2.30;81.70;;;1.91;100.00;99211.03;4949687;28;119148;-80
2021/12/17 06:40:12;;;;;;;8.40;2.85;;;2.40;81.80;;;1.72;100.00;99206.13;4948830;28;129944;-79
2021/12/17 06:42:41;;;;;;;5.85;2.40;;;2.30;80.70;;;1.65;100.00;99208.19;4982319;28;129602;-79
2021/12/17 06:45:19;;;;;;;7.93;3.40;;;2.40;80.20;;;1.72;100.00;99232.88;4946897;28;119734;-78
2021/12/17 06:47:56;;;;;;;8.60;3.30;;;2.40;80.90;;;1.63;100.00;99218.38;4949232;28;119022;-79
2021/12/17 06:57:47;;;;;;;5.90;2.88;;;2.40;83.50;;;1.72;100.00;99219.50;4941754;28;119777;-79
2021/12/17 07:06:26;;;;;;;6.47;3.05;;;2.30;85.30;;;1.65;100.00;99226.94;4949951;28;130002;-79
2021/12/17 07:32:51;;;;;;;10.88;4.00;;;2.20;97.90;;;1.85;100.00;99244.16;4940989;28;118788;-79
2021/12/17 07:35:44;;;;;;;11.55;3.85;;;2.20;96.80;;;1.93;100.00;99241.00;4931487;28;118565;-80
2021/12/17 07:41:09;;;;;;;6.35;2.67;;;2.30;90.30;;;2.07;100.00;99257.38;4976453;28;129082;-80
2021/12/17 07:43:40;;;;;;;6.57;2.58;;;2.40;89.60;;;1.83;100.00;99265.84;4931611;28;118527;-80
2021/12/17 07:46:16;;;;;;;6.32;2.50;;;2.30;86.20;;;1.80;100.00;99263.69;4944941;28;120010;-79
2021/12/17 07:48:45;;;;;;;6.25;2.65;;;2.30;85.20;;;1.79;100.00;99273.59;4946554;28;129449;-80
2021/12/17 07:51:23;;;;;;;7.95;3.00;;;2.30;82.90;;;1.93;100.00;99281.13;4963553;28;128641;-79
2021/12/17 07:53:58;;;;;;;5.28;2.88;;;2.30;83.70;;;1.75;100.00;99277.84;4944795;28;119549;-80
2021/12/17 07:56:37;;;;;;;6.80;2.30;;;2.30;82.50;;;1.94;100.00;99282.75;4947883;28;119077;-80
2021/12/17 07:59:15;;;;;;;5.75;3.00;;;2.40;83.30;;;1.94;100.00;99288.13;4975066;28;129966;-80
2021/12/17 08:01:44;;;;;;;6.78;2.10;;;2.40;80.80;;;1.91;100.00;99283.28;4947690;28;129654;-80
2021/12/17 08:04:14;;;;;;;4.47;2.15;;;2.40;77.50;;;2.02;100.00;99268.88;4944747;28;119829;-80
2021/12/17 08:07:21;;;;;;;7.53;2.00;;;2.40;80.20;;;2.30;98.71;99277.56;4949212;28;119549;-80
2021/12/17 08:09:51;;;;;;;8.82;3.58;;;2.50;76.80;;;2.15;99.80;99275.63;4976831;28;129898;-80
2021/12/17 08:12:20;;;;;;;7.13;2.88;;;2.40;78.60;;;2.04;100.00;99282.81;4944054;28;129677;-80
2021/12/17 08:15:04;;;;;;;5.13;2.40;;;2.30;81.80;;;1.56;100.00;99280.13;4944810;28;121290;-79
2021/12/17 08:17:51;;;;;;;5.70;2.47;;;1.90;92.80;;;1.29;100.00;99293.56;4929840;28;120937;-80
2021/12/17 08:26:14;;;;;;;7.72;3.42;;;1.70;99.90;;;1.70;100.00;99288.50;4961967;28;119284;-79
2021/12/17 08:32:01;;;;;;;10.27;3.25;;;1.90;99.90;;;1.80;100.00;99293.91;4905910;28;128993;-78
2021/12/17 08:34:39;;;;;;;6.25;3.03;;;1.90;99.90;;;1.70;100.00;99296.53;4903169;28;129819;-79
2021/12/17 08:37:10;;;;;;;8.38;2.55;;;1.90;99.90;;;1.33;100.00;99308.03;4919719;28;118988;-80
2021/12/17 08:39:42;;;;;;;8.73;3.45;;;1.90;99.90;;;1.64;100.00;99302.91;4930543;28;118467;-80
2021/12/17 08:42:33;;;;;;;8.90;4.07;;;1.90;99.90;;;1.78;100.00;99308.63;4946161;28;130185;-82
2021/12/17 08:45:06;;;;;;;8.35;6.07;;;1.90;99.90;;;1.69;100.00;99294.91;4979592;28;129413;-81
2021/12/17 08:47:51;;;;;;;9.82;3.45;;;2.00;99.90;;;1.70;100.00;99298.38;4947075;28;119372;-81
2021/12/17 08:50:37;;;;;;;9.45;4.10;;;2.00;99.90;;;2.06;100.00;99304.78;4962669;28;118586;-80
2021/12/17 08:53:06;;;;;;;4.95;2.60;;;2.10;99.90;;;1.90;100.00;99303.06;4941623;28;129755;-79
2021/12/17 08:55:37;;;;;;;5.93;2.55;;;2.10;99.90;;;1.89;100.00;99299.59;4962944;28;128769;-81
2021/12/17 08:58:12;;;;;;;5.65;2.15;;;2.10;99.90;;;1.80;100.00;99301.16;4944559;28;119290;-83
2021/12/17 09:00:42;;;;;;;6.32;2.75;;;2.10;99.90;;;1.34;100.00;99314.19;4943424;28;120080;-84
2021/12/17 09:03:12;;;;;;;6.45;3.30;;;2.00;99.90;;;1.51;100.00;99300.66;4975723;28;129751;-83
2021/12/17 09:05:46;;;;;;;6.32;3.30;;;2.00;99.90;;;1.49;100.00;99294.78;4979357;28;130090;-83
2021/12/17 09:08:21;;;;;;;7.68;3.63;;;2.00;99.90;;;1.90;100.00;99303.06;4961016;28;121735;-83
2021/12/17 09:11:12;;;;;;;6.97;2.28;;;2.10;99.90;;;1.75;100.00;99304.59;4945954;28;122043;-83
2021/12/17 09:13:53;;;;;;;7.68;2.63;;;2.10;99.90;;;1.54;100.00;99300.16;4944799;28;128676;-83
2021/12/17 09:16:28;;;;;;;6.55;3.25;;;2.10;99.90;;;1.85;100.00;99303.03;4930116;28;128300;-81
2021/12/17 09:18:58;;;;;;;8.10;4.20;;;2.10;99.90;;;2.21;100.00;99316.63;4963026;28;118474;-80
2021/12/17 09:21:48;;;;;;;7.60;2.75;;;2.20;99.90;;;1.93;100.00;99316.75;4947526;28;119626;-81
2021/12/17 09:24:20;;;;;;;6.40;2.90;;;2.20;99.90;;;2.21;100.00;99312.06;4950507;28;129810;-81
2021/12/17 09:27:10;;;;;;;7.03;2.25;;;2.30;99.90;;;1.93;100.00;99315.94;4967134;28;129713;-81
2021/12/17 09:29:58;;;;;;;4.65;1.90;;;2.20;99.90;;;1.90;100.00;99305.75;4976160;28;119580;-81
2021/12/17 09:32:27;;;;;;;4.93;2.30;;;2.20;99.90;;;2.10;100.00;99305.88;4961804;28;117850;-81
2021/12/17 09:34:55;;;;;;;8.13;3.15;;;2.30;99.90;;;2.00;100.00;99316.53;4949209;28;129345;-83
2021/12/17 09:37:24;;;;;;;8.57;4.18;;;2.30;99.90;;;2.37;100.00;99302.25;4983261;28;129170;-82
2021/12/17 09:39:52;;;;;;;7.47;3.80;;;2.30;99.90;;;2.70;100.00;99300.19;4966111;28;118723;-82
2021/12/17 09:42:22;;;;;;;8.93;4.18;;;2.50;99.90;;;2.35;100.00;99299.00;4966233;28;118684;-82
2021/12/17 09:44:51;;;;;;;7.63;3.10;;;2.40;98.60;;;2.14;100.00;99300.81;4966084;28;129579;-82
2021/12/17 09:47:19;;;;;;;9.52;4.25;;;2.40;97.40;;;2.58;100.00;99297.75;4965648;28;129757;-82
2021/12/17 09:49:48;;;;;;;10.18;4.28;;;2.50;97.10;;;2.61;100.00;99299.09;4964602;28;119317;-80
2021/12/17 09:52:17;;;;;;;8.00;3.40;;;2.50;95.50;;;2.53;100.00;99294.25;4966511;28;118865;-81
2021/12/17 09:54:46;;;;;;;5.93;2.70;;;2.50;95.00;;;2.54;100.00;99294.00;4965752;28;129137;-81
2021/12/17 09:57:17;;;;;;;5.15;1.92;;;2.50;94.30;;;2.53;100.00;99286.22;4963927;28;129660;-77
2021/12/17 09:59:47;;;;;;;7.10;2.42;;;2.60;93.90;;;2.37;100.00;99294.22;4948519;28;121559;-79
2021/12/17 10:02:30;;;;;;;8.52;4.35;;;2.60;90.20;;;2.46;100.00;99292.63;4949447;28;121121;-81
2021/12/17 10:04:58;;;;;;;7.03;2.90;;;2.70;88.50;;;2.64;100.00;99298.56;4964217;28;130252;-81
2021/12/17 10:07:30;;;;;;;6.80;2.83;;;2.80;88.30;;;2.83;100.00;99290.84;4967598;28;128971;-81
2021/12/17 10:10:02;;;;;;;6.97;3.50;;;2.80;90.20;;;2.91;99.97;99297.56;4966369;28;119439;-80
2021/12/17 10:12:33;;;;;;;7.90;3.72;;;2.80;90.10;;;2.74;99.83;99287.06;4965771;28;120001;-81
2021/12/17 10:15:08;;;;;;;6.65;3.13;;;2.70;87.90;;;2.64;99.23;99293.22;4967411;28;128699;-81
2021/12/17 10:17:51;;;;;;;6.50;3.13;;;2.70;87.30;;;2.49;99.95;99289.44;4967774;28;128940;-80
2021/12/17 10:20:21;;;;;;;8.10;2.72;;;2.60;86.00;;;2.32;99.63;99286.13;4967612;28;119151;-81
2021/12/17 10:22:58;;;;;;;7.07;3.05;;;2.50;85.00;;;2.40;99.16;99293.69;4965570;28;119349;-81
2021/12/17 10:25:28;;;;;;;6.35;2.85;;;2.50;82.30;;;2.41;98.98;99275.72;4965817;28;130072;-81
2021/12/17 10:28:05;;;;;;;6.00;3.30;;;2.50;83.00;;;2.65;98.97;99278.72;4983144;28;129713;-81
2021/12/17 10:30:38;;;;;;;7.90;3.22;;;2.60;84.10;;;2.40;98.39;99276.78;4965558;28;119969;-81
2021/12/17 10:33:11;;;;;;;8.65;3.33;;;2.50;81.20;;;2.49;99.53;99284.06;4967795;28;119126;-81
2021/12/17 10:35:44;;;;;;;5.63;1.98;;;2.50;84.00;;;2.35;99.36;99277.56;4951144;28;129823;-81
2021/12/17 10:38:16;;;;;;;9.45;3.70;;;2.50;83.70;;;2.46;99.83;99276.56;4967290;28;129812;-81
2021/12/17 10:40:50;;;;;;;7.00;3.10;;;2.50;83.80;;;2.63;98.75;99275.53;4978359;28;120016;-82
2021/12/17 10:43:25;;;;;;;8.93;2.83;;;2.60;81.20;;;2.72;97.28;99263.22;4972050;28;119367;-81
2021/12/17 10:46:05;;;;;;;5.57;2.38;;;2.60;81.50;;;2.73;97.09;99264.84;4965351;28;129834;-82
2021/12/17 10:48:48;;;;;;;3.47;1.40;;;2.60;77.90;;;2.25;97.85;99262.28;4967002;28;128868;-81
2021/12/17 10:51:46;;;;;;;4.10;1.52;;;2.60;72.10;;;2.07;99.61;99255.53;4982551;28;121744;-80
2021/12/17 10:54:18;;;;;;;4.03;1.70;;;2.50;74.20;;;2.33;98.47;99255.63;4965500;28;121987;-81
2021/12/17 10:56:50;;;;;;;2.80;1.42;;;2.70;72.00;;;2.49;97.60;99265.31;4964979;28;130032;-80
2021/12/17 10:59:20;;;;;;;3.08;1.33;;;2.80;69.70;;;2.36;98.39;99249.75;4964787;28;129972;-80
2021/12/17 11:01:55;;;;;;;4.90;1.65;;;2.70;73.20;;;2.21;98.67;99263.06;4966568;28;119619;-81
2021/12/17 11:04:26;;;;;;;7.05;1.75;;;2.50;72.40;;;2.35;97.87;99258.81;4965191;28;119412;-79
2021/12/17 11:06:58;;;;;;;4.63;1.40;;;2.50;74.10;;;2.18;98.79;99258.22;4966662;28;129002;-80
2021/12/17 11:09:42;;;;;;;3.42;1.52;;;2.50;73.60;;;2.33;99.88;99272.47;4965360;28;129437;-81
2021/12/17 11:12:26;;;;;;;3.30;1.52;;;2.50;80.90;;;2.15;100.00;99264.91;4966950;28;119700;-80
2021/12/17 11:14:57;;;;;;;4.70;1.70;;;2.40;85.60;;;2.18;100.00;99274.31;4963707;28;119414;-81
2021/12/17 11:17:27;;;;;;;4.03;1.50;;;2.40;85.30;;;2.17;100.00;99268.16;4962410;28;130317;-81
2021/12/17 11:19:58;;;;;;;4.82;1.67;;;2.40;85.10;;;2.19;100.00;99270.56;4964479;28;129963;-80
2021/12/17 11:22:29;;;;;;;5.93;1.60;;;2.50;82.80;;;2.16;99.30;99272.69;4950593;28;118591;-80
2021/12/17 11:25:01;;;;;;;2.63;1.60;;;2.50;76.50;;;1.96;99.38;99273.41;4965063;28;119816;-80
2021/12/17 11:27:31;;;;;;;6.18;1.55;;;2.40;73.30;;;1.94;100.00;99280.09;4967166;28;130464;-82
2021/12/17 11:30:01;;;;;;;3.70;1.10;;;2.40;77.20;;;2.01;99.62;99274.50;4965638;28;130045;-81
2021/12/17 11:32:32;;;;;;;5.65;1.55;;;2.40;73.00;;;2.03;100.00;99281.19;4951118;28;118713;-80
2021/12/17 11:35:01;;;;;;;7.32;2.00;;;2.50;79.60;;;1.98;100.00;99281.19;4965592;28;119310;-81
2021/12/17 11:37:30;;;;;;;4.65;2.17;;;2.30;85.80;;;1.98;100.00;99281.19;4963366;28;130442;-81
2021/12/17 11:40:07;;;;;;;5.72;1.92;;;2.20;90.20;;;1.93;100.00;99281.13;4963261;28;130304;-81
2021/12/17 11:43:04;;;;;;;5.10;1.80;;;2.20;85.10;;;1.88;100.00;99286.47;4982124;28;121022;-80
2021/12/17 11:45:34;;;;;;;4.97;2.57;;;2.20;86.00;;;2.00;100.00;99279.03;4963797;28;122128;-81
2021/12/17 11:48:19;;;;;;;4.63;1.83;;;2.30;86.80;;;1.96;100.00;99289.47;4966097;28;129444;-80
2021/12/17 11:51:06;;;;;;;5.40;1.73;;;2.30;80.00;;;2.05;99.95;99291.66;4965884;28;129302;-80
2021/12/17 11:53:43;;;;;;;3.85;1.55;;;2.40;77.70;;;2.01;100.00;99288.69;4976517;28;119622;-80
2021/12/17 11:56:12;;;;;;;6.72;2.10;;;2.40;80.50;;;1.99;100.00;99290.81;4973709;28;118923;-81
2021/12/17 11:58:49;;;;;;;2.95;1.30;;;2.30;85.20;;;1.66;100.00;99300.78;4962897;28;130389;-81
2021/12/17 12:02:00;;;;;;;3.85;1.75;;;2.10;93.40;;;1.42;100.00;99289.66;4966179;28;128576;-80
2021/12/17 12:04:59;;;;;;;5.15;1.33;;;2.00;98.30;;;1.49;100.00;99300.13;4964205;28;120019;-81
2021/12/17 12:07:37;;;;;;;4.10;1.83;;;2.00;99.90;;;1.65;100.00;99304.50;4979674;28;119544;-82
2021/12/17 12:10:24;;;;;;;3.65;1.48;;;2.00;99.90;;;1.62;100.00;99299.69;4964600;28;129581;-82
2021/12/17 12:13:05;;;;;;;2.15;1.20;;;2.00;99.90;;;1.60;100.00;99301.81;4982254;28;129455;-82
2021/12/17 12:15:40;;;;;;;6.43;1.65;;;2.00;96.60;;;1.56;100.00;99295.38;4964537;28;119700;-82
2021/12/17 12:18:43;;;;;;;3.40;1.20;;;2.10;95.80;;;1.74;100.00;99297.63;4966349;28;118694;-81
2021/12/17 12:21:17;;;;;;;5.68;1.40;;;2.20;94.00;;;1.84;100.00;99301.41;4963457;28;129739;-80
2021/12/17 12:24:12;;;;;;;8.02;1.75;;;2.20;93.70;;;1.95;100.00;99300.44;4983673;28;129493;-82
2021/12/17 12:26:45;;;;;;;3.78;1.67;;;2.20;92.80;;;1.94;100.00;99301.50;4965940;28;119652;-81
2021/12/17 12:29:18;;;;;;;3.00;1.20;;;2.20;91.90;;;1.90;100.00;99303.06;4963903;28;119122;-81
2021/12/17 12:32:17;;;;;;;5.25;1.58;;;2.20;89.00;;;1.75;100.00;99303.78;4967079;28;104792;-81
2021/12/17 12:34:46;;;;;;;5.60;1.95;;;2.10;86.90;;;1.86;100.00;99302.00;4950009;28;129077;-81
2021/12/17 12:37:29;;;;;;;5.30;1.80;;;2.10;85.60;;;1.69;100.00;99312.84;4981544;28;120952;-81
2021/12/17 12:40:21;;;;;;;6.82;2.80;;;2.00;85.20;;;1.63;100.00;99312.00;4965999;28;121630;-82
2021/12/17 12:42:56;;;;;;;7.93;3.67;;;2.10;80.10;;;1.56;100.00;99311.44;4963705;28;130022;-82
2021/12/17 12:45:31;;;;;;;7.00;3.40;;;2.10;78.30;;;1.56;100.00;99317.56;4949029;28;129667;-82
2021/12/17 12:48:01;;;;;;;5.93;2.90;;;2.10;77.30;;;1.68;100.00;99320.06;4982719;28;118857;-81
2021/12/17 12:50:33;;;;;;;5.75;2.10;;;2.10;78.00;;;1.60;100.00;99320.53;4965836;28;118624;-81
2021/12/17 12:53:11;;;;;;;6.22;2.75;;;2.00;75.50;;;1.47;100.00;99324.47;4979114;28;129656;-80
2021/12/17 12:55:45;;;;;;;4.15;1.80;;;2.00;75.50;;;1.47;100.00;99329.81;4965804;28;129395;-82
2021/12/17 12:58:19;;;;;;;6.93;2.42;;;2.00;71.50;;;1.50;100.00;99326.63;4962337;28;120011;-83
2021/12/17 13:00:56;;;;;;;5.55;2.80;;;2.00;72.80;;;1.42;100.00;99333.25;4964791;28;118295;-80
2021/12/17 13:03:28;;;;;;;6.43;2.40;;;2.00;74.70;;;1.64;100.00;99334.19;4981911;28;130090;-80
2021/12/17 13:06:00;;;;;;;8.85;4.93;;;2.00;75.60;;;1.62;100.00;99337.13;4985938;28;129711;-80
2021/12/17 13:08:42;;;;;;;9.35;3.67;;;2.00;79.00;;;1.61;100.00;99344.34;5002067;28;119072;-80
2021/12/17 13:11:12;;;;;;;12.75;4.72;;;2.00;81.80;;;1.50;100.00;99339.19;4986395;28;119109;-80
2021/12/17 13:13:45;;;;;;;4.72;1.98;;;2.00;82.30;;;1.47;100.00;99347.72;5002745;28;129205;-80
2021/12/17 13:16:20;;;;;;;5.18;2.28;;;1.90;80.20;;;1.39;100.00;99340.97;4977200;28;130533;-80
2021/12/17 13:21:47;;;;;;;;;;;1.80;82.90;;;1.15;100.00;99353.84;4967830;28;119738;-80
2021/12/17 13:24:21;;;;;;;3.22;1.58;;;1.80;87.10;;;1.15;100.00;99364.53;4963329;28;129978;-80
2021/12/17 13:26:52;;;;;;;3.20;1.40;;;1.70;90.30;;;0.96;100.00;99364.88;4965472;28;129861;-79
2021/12/17 13:29:24;;;;;;;3.60;1.85;;;1.70;92.30;;;0.82;100.00;99367.13;4963198;28;122141;-80